Time;durP1;ratioP1;P1;durP2;ratioP2;P2;SDS_P1;SDS_P2;PMS_P1;PMS_P2;Temp;Humidity;BMP_temperature;BMP_pressure;BME280_temperature;BME280_humidity;BME280_pressure;Samples;Min_cycle;Max_cycle;Signal;HPM_P1;HPM_P2
2022/11/20 00:01:07;;;;;;;23.80;13.70;;;16.90;81.80;;;18.32;44.13;98441.31;5010464;28;20072;-75
2022/11/20 00:03:37;;;;;;;22.20;12.85;;;16.90;81.80;;;18.27;44.27;98444.25;5014354;28;20055;-75
2022/11/20 00:06:12;;;;;;;23.70;12.35;;;16.90;81.70;;;18.36;44.31;98442.22;5012221;28;20057;-74
2022/11/20 00:08:38;;;;;;;22.13;13.38;;;16.90;81.90;;;18.32;44.35;98441.31;4996216;28;20037;-74
2022/11/20 00:11:12;;;;;;;18.98;11.93;;;16.90;81.80;;;18.37;44.30;98441.09;5012543;28;20042;-75
2022/11/20 00:13:38;;;;;;;19.60;13.00;;;17.00;81.70;;;18.36;44.02;98439.47;5012159;28;20151;-75
2022/11/20 00:16:06;;;;;;;21.60;12.57;;;17.00;81.70;;;18.37;44.31;98443.84;5012347;28;20034;-75
2022/11/20 00:18:35;;;;;;;21.35;12.18;;;16.90;81.70;;;18.33;44.21;98434.66;4997008;28;20646;-75
2022/11/20 00:21:14;;;;;;;27.45;13.43;;;16.90;81.60;;;18.34;44.22;98429.97;5008760;28;20072;-75
2022/11/20 00:23:41;;;;;;;24.40;13.43;;;17.00;81.50;;;18.44;44.25;98429.56;5011313;28;20044;-75
2022/11/20 00:26:09;;;;;;;22.55;13.65;;;17.00;81.60;;;18.47;43.92;98422.59;5011573;28;20096;-74
2022/11/20 00:28:35;;;;;;;18.48;12.65;;;17.00;81.70;;;18.44;44.11;98427.66;5028519;28;20396;-75
2022/11/20 00:31:10;;;;;;;22.63;13.48;;;17.00;81.60;;;18.47;43.75;98426.19;5009783;28;20041;-75
2022/11/20 00:33:37;;;;;;;20.88;13.27;;;17.00;81.50;;;18.47;43.84;98422.59;4996482;28;20033;-75
2022/11/20 00:36:08;;;;;;;25.98;12.95;;;17.00;81.20;;;18.52;43.91;98425.97;4996780;28;20049;-75
2022/11/20 00:38:35;;;;;;;24.30;14.45;;;17.00;81.20;;;18.52;43.74;98420.47;5028047;28;20419;-75
2022/11/20 00:41:04;;;;;;;30.63;14.30;;;17.00;81.30;;;18.54;43.98;98428.38;4993575;28;20384;-75
2022/11/20 00:43:30;;;;;;;26.85;15.02;;;17.10;81.60;;;18.54;43.74;98420.94;5011405;28;20046;-75
2022/11/20 00:46:00;;;;;;;23.58;12.80;;;17.00;81.20;;;18.55;43.96;98424.50;5028340;28;20453;-75
2022/11/20 00:48:26;;;;;;;22.15;13.07;;;17.10;81.20;;;18.62;43.50;98422.00;4993105;28;20037;-75
2022/11/20 00:50:53;;;;;;;22.30;13.48;;;17.10;81.10;;;18.62;43.38;98419.25;5010198;28;20037;-75
2022/11/20 00:53:19;;;;;;;21.02;12.70;;;17.00;81.20;;;18.62;43.55;98419.25;5010795;28;20048;-75
2022/11/20 00:56:05;;;;;;;20.20;13.10;;;17.10;82.10;;;18.64;43.58;98416.97;5026203;28;20050;-75
2022/11/20 00:58:36;;;;;;;19.63;12.68;;;17.10;81.30;;;18.62;43.60;98405.50;5028686;28;20401;-75
2022/11/20 01:01:16;;;;;;;23.33;13.85;;;17.00;81.40;;;18.59;43.41;98400.69;5011150;28;20042;-75
2022/11/20 01:03:47;;;;;;;21.42;13.73;;;17.10;81.30;;;18.66;43.53;98399.00;5010913;28;20727;-75
2022/11/20 01:06:25;;;;;;;19.60;12.95;;;17.10;81.30;;;18.62;43.60;98398.09;5011172;28;20045;-75
2022/11/20 01:08:55;;;;;;;23.65;13.82;;;17.10;81.20;;;18.67;43.51;98394.31;5006651;28;20076;-76
2022/11/20 01:11:24;;;;;;;19.80;12.85;;;17.10;81.10;;;18.67;43.48;98405.31;5027068;28;20411;-76
2022/11/20 01:13:51;;;;;;;26.35;14.73;;;17.10;81.30;;;18.67;43.62;98405.31;5010247;28;20602;-76
2022/11/20 01:16:20;;;;;;;26.88;14.65;;;17.10;81.30;;;18.75;43.29;98398.13;5009673;28;20037;-76
2022/11/20 01:18:49;;;;;;;24.30;14.40;;;17.20;81.10;;;18.75;43.17;98398.97;5009828;28;20080;-76
2022/11/20 01:21:20;;;;;;;22.55;14.10;;;17.20;81.00;;;18.74;43.27;98396.53;5009704;28;20072;-76
2022/11/20 01:23:47;;;;;;;19.27;13.20;;;17.20;80.70;;;18.72;43.22;98393.31;4999053;28;20053;-76
2022/11/20 01:26:19;;;;;;;21.33;12.52;;;17.30;80.70;;;18.74;43.23;98388.28;4999265;28;20040;-76
2022/11/20 01:28:45;;;;;;;19.75;12.95;;;17.20;80.90;;;18.74;43.31;98386.34;5013671;28;20045;-76
2022/11/20 01:31:21;;;;;;;20.13;13.05;;;17.20;80.90;;;18.74;43.27;98391.84;5011132;28;20076;-76
2022/11/20 01:33:50;;;;;;;18.70;11.65;;;17.20;80.90;;;18.73;43.42;98381.19;5025103;28;20042;-76
2022/11/20 01:36:16;;;;;;;22.98;13.20;;;17.20;80.90;;;18.80;43.04;98382.28;5026150;28;20080;-76
2022/11/20 01:38:43;;;;;;;21.85;13.00;;;17.30;80.70;;;18.81;43.10;98388.59;5009826;28;20037;-76
2022/11/20 01:41:09;;;;;;;22.95;12.65;;;17.30;80.70;;;18.81;43.24;98372.09;5010096;28;20457;-76
2022/11/20 01:43:36;;;;;;;24.65;13.00;;;17.20;80.90;;;18.81;43.14;98378.38;5028662;28;20044;-76
2022/11/20 01:46:16;;;;;;;20.27;12.80;;;17.20;81.10;;;18.83;43.21;98378.06;5011128;28;20045;-76
2022/11/20 01:49:08;;;;;;;18.88;12.90;;;17.30;81.10;;;18.83;43.36;98387.09;4997022;28;20060;-76
2022/11/20 01:51:50;;;;;;;23.90;13.27;;;17.20;81.00;;;18.85;42.99;98379.31;5033856;28;20034;-76
2022/11/20 01:54:21;;;;;;;22.85;13.35;;;17.30;81.60;;;18.84;43.29;98377.69;5030231;28;20045;-76
2022/11/20 01:56:48;;;;;;;21.70;13.52;;;17.30;80.70;;;18.82;43.21;98379.97;5000606;28;20056;-76
2022/11/20 01:59:15;;;;;;;18.73;12.88;;;17.30;80.70;;;18.86;43.28;98378.19;5013691;28;20040;-76
2022/11/20 02:01:42;;;;;;;20.45;13.18;;;17.20;80.90;;;18.88;43.19;98377.84;5016077;28;20466;-76
2022/11/20 02:04:08;;;;;;;28.58;13.38;;;17.30;81.10;;;18.89;43.05;98384.16;5010829;28;20481;-76
2022/11/20 02:06:54;;;;;;;22.88;12.95;;;17.30;81.00;;;18.92;43.42;98380.72;5014743;28;20079;-76
2022/11/20 02:09:21;;;;;;;21.85;13.10;;;17.30;80.80;;;18.80;43.14;98379.53;5029468;28;20393;-76
2022/11/20 02:11:47;;;;;;;24.95;13.48;;;17.30;80.70;;;18.83;43.13;98389.06;5016456;28;20100;-76
2022/11/20 02:14:14;;;;;;;19.05;12.45;;;17.30;80.60;;;18.85;43.11;98384.00;4999832;28;20477;-75
2022/11/20 02:16:44;;;;;;;25.27;13.27;;;17.30;80.70;;;18.89;43.21;98384.16;5015882;28;20037;-76
2022/11/20 02:19:27;;;;;;;19.98;12.93;;;17.30;80.80;;;18.86;43.22;98388.38;5015786;28;20426;-76
2022/11/20 02:22:00;;;;;;;23.38;12.80;;;17.30;81.00;;;18.88;43.38;98394.34;5031409;28;20129;-76
2022/11/20 02:24:26;;;;;;;23.35;13.38;;;17.30;80.80;;;18.85;43.18;98390.31;4998439;28;20675;-75
2022/11/20 02:27:03;;;;;;;22.20;13.75;;;17.40;80.50;;;18.90;42.93;98393.97;5014302;28;20128;-75
2022/11/20 02:29:44;;;;;;;22.63;13.30;;;17.40;80.40;;;18.86;43.19;98400.16;5018571;28;20052;-75
2022/11/20 02:32:20;;;;;;;22.40;12.30;;;17.40;80.60;;;18.87;43.45;98404.50;5030839;28;20037;-75
2022/11/20 02:34:47;;;;;;;20.63;13.38;;;17.40;81.00;;;18.86;43.39;98410.34;5028099;28;20042;-75
2022/11/20 02:37:14;;;;;;;22.63;12.35;;;17.30;81.00;;;18.86;43.25;98405.66;5014107;28;20115;-75
2022/11/20 02:39:41;;;;;;;17.65;11.43;;;17.30;80.80;;;18.87;43.09;98400.94;4996218;28;20038;-76
2022/11/20 02:42:07;;;;;;;21.65;13.32;;;17.40;80.60;;;18.87;43.05;98409.19;5014626;28;20489;-76
2022/11/20 02:44:34;;;;;;;19.67;12.70;;;17.30;80.40;;;18.87;43.08;98404.50;5014554;28;20400;-76
2022/11/20 02:47:00;;;;;;;21.13;12.60;;;17.30;80.60;;;18.87;42.84;98411.94;5030754;28;20107;-76
2022/11/20 02:49:26;;;;;;;18.00;11.55;;;17.30;80.60;;;18.85;43.36;98404.06;4991064;28;20087;-75
2022/11/20 02:51:52;;;;;;;22.42;12.57;;;17.30;80.90;;;18.90;43.14;98402.22;5028645;28;20050;-76
2022/11/20 02:54:20;;;;;;;20.80;12.88;;;17.40;80.80;;;18.89;43.23;98401.44;5011337;28;20072;-76
2022/11/20 02:56:46;;;;;;;21.00;12.95;;;17.40;80.70;;;18.87;43.20;98400.94;5014582;28;20476;-76
2022/11/20 02:59:13;;;;;;;30.38;13.98;;;17.40;80.60;;;18.84;43.02;98398.88;5014289;28;20045;-76
2022/11/20 03:01:39;;;;;;;20.70;11.90;;;17.40;81.30;;;18.82;43.21;98390.97;5027442;28;20041;-76
2022/11/20 03:04:05;;;;;;;17.88;12.18;;;17.30;80.60;;;18.83;43.37;98387.09;5011722;28;20179;-76
2022/11/20 03:06:32;;;;;;;20.30;12.90;;;17.30;80.90;;;18.86;43.35;98391.91;5012599;28;20130;-76
2022/11/20 03:08:59;;;;;;;22.98;13.40;;;17.30;80.90;;;18.81;43.29;98383.09;5014312;28;20369;-76
2022/11/20 03:11:25;;;;;;;16.05;11.32;;;17.30;80.60;;;18.84;43.19;98379.66;5011968;28;20116;-75
2022/11/20 03:13:52;;;;;;;20.23;12.55;;;17.30;80.50;;;18.84;43.07;98388.69;4983086;28;20522;-76
2022/11/20 03:16:21;;;;;;;18.90;12.27;;;17.40;80.40;;;18.78;43.08;98384.56;5029778;28;20040;-76
2022/11/20 03:18:48;;;;;;;19.90;12.63;;;17.40;80.10;;;18.78;43.13;98387.31;5026983;28;20060;-76
2022/11/20 03:21:15;;;;;;;18.98;11.57;;;17.40;80.30;;;18.80;43.34;98379.53;5014176;28;20045;-76
2022/11/20 03:23:41;;;;;;;20.08;12.68;;;17.40;80.40;;;18.80;43.38;98385.03;5013585;28;20061;-76
2022/11/20 03:26:11;;;;;;;18.23;12.25;;;17.40;80.50;;;18.80;43.16;98379.53;5014697;28;20481;-76
2022/11/20 03:28:37;;;;;;;23.48;12.95;;;17.40;80.40;;;18.80;43.22;98384.22;5029776;28;20041;-76
2022/11/20 03:31:12;;;;;;;21.75;14.13;;;17.40;80.20;;;18.75;42.92;98384.38;5013103;28;20503;-76
2022/11/20 03:33:39;;;;;;;19.60;12.88;;;17.50;80.00;;;18.75;43.01;98374.25;5014006;28;20556;-76
2022/11/20 03:36:08;;;;;;;19.05;12.40;;;17.40;80.10;;;18.79;43.22;98380.66;5013086;28;20056;-76
2022/11/20 03:38:36;;;;;;;19.75;12.10;;;17.30;80.20;;;18.74;43.44;98375.34;5007677;28;20121;-75
2022/11/20 03:41:08;;;;;;;20.42;12.95;;;17.30;80.60;;;18.77;43.26;98376.66;5011909;28;20045;-75
2022/11/20 03:43:38;;;;;;;19.58;12.77;;;17.30;80.30;;;18.79;43.09;98368.88;5028872;28;20049;-75
2022/11/20 03:46:05;;;;;;;16.35;11.07;;;17.30;80.20;;;18.72;43.10;98374.88;5028596;28;20049;-75
2022/11/20 03:48:32;;;;;;;17.40;10.75;;;17.30;80.30;;;18.69;42.98;98375.56;5023673;28;20042;-75
2022/11/20 03:51:14;;;;;;;19.80;13.00;;;17.30;80.10;;;18.71;43.48;98370.53;5008871;28;20042;-75
2022/11/20 03:53:41;;;;;;;24.57;13.10;;;17.30;80.20;;;18.71;43.09;98367.78;4999676;28;20084;-75
2022/11/20 03:56:07;;;;;;;19.88;12.65;;;17.30;79.80;;;18.71;42.77;98358.75;5011618;28;20527;-75
2022/11/20 03:58:41;;;;;;;25.90;13.60;;;17.30;79.40;;;18.69;42.55;98359.06;5013907;28;20083;-75
2022/11/20 04:01:17;;;;;;;18.25;12.88;;;17.20;79.50;;;18.69;42.65;98361.03;5013931;28;20381;-75
2022/11/20 04:03:45;;;;;;;21.45;13.05;;;17.20;79.40;;;18.67;42.74;98355.84;5013357;28;20045;-75
2022/11/20 04:06:25;;;;;;;22.67;13.77;;;17.20;79.80;;;18.66;42.57;98357.00;5011209;28;20056;-75
2022/11/20 04:08:54;;;;;;;21.40;13.80;;;17.20;80.00;;;18.66;42.43;98354.25;5014998;28;20052;-75
2022/11/20 04:11:28;;;;;;;19.58;11.65;;;17.20;79.30;;;18.65;41.95;98353.47;5008524;28;20037;-75
2022/11/20 04:13:58;;;;;;;19.52;12.05;;;17.30;79.20;;;18.64;42.51;98356.53;5046622;28;20049;-75
2022/11/20 04:16:25;;;;;;;20.25;12.20;;;17.30;79.10;;;18.60;42.29;98352.88;5013919;28;20186;-75
2022/11/20 04:18:53;;;;;;;20.83;12.82;;;17.20;78.80;;;18.61;42.46;98354.47;4996323;28;20045;-75
2022/11/20 04:21:19;;;;;;;21.02;13.60;;;17.20;78.90;;;18.60;42.38;98350.94;5011545;28;20046;-75
2022/11/20 04:23:45;;;;;;;22.00;13.98;;;17.20;79.00;;;18.61;42.53;98352.53;5026537;28;20042;-75
2022/11/20 04:26:11;;;;;;;21.42;13.15;;;17.20;79.20;;;18.60;42.19;98356.44;5011664;28;20120;-75
2022/11/20 04:28:38;;;;;;;23.15;13.85;;;17.20;78.80;;;18.59;42.07;98351.25;5012365;28;20045;-75
2022/11/20 04:31:08;;;;;;;20.35;12.70;;;17.20;78.60;;;18.56;42.09;98350.00;5014223;28;20037;-75
2022/11/20 04:33:35;;;;;;;17.20;12.50;;;17.30;78.30;;;18.57;41.83;98354.34;5015366;28;20045;-75
2022/11/20 04:36:23;;;;;;;21.20;13.43;;;17.20;78.30;;;18.56;42.20;98354.69;5013495;28;20388;-75
2022/11/20 04:39:01;;;;;;;22.73;14.02;;;17.20;78.60;;;18.54;41.93;98346.78;5013396;28;20045;-75
2022/11/20 04:41:31;;;;;;;24.25;13.77;;;17.10;78.50;;;18.53;42.25;98339.69;4997132;28;20121;-75
2022/11/20 04:44:02;;;;;;;18.42;12.38;;;17.20;78.60;;;18.55;42.04;98344.84;5013975;28;20115;-75
2022/11/20 04:46:30;;;;;;;20.05;13.10;;;17.20;78.20;;;18.53;41.73;98350.66;5029703;28;20041;-75
2022/11/20 04:48:56;;;;;;;23.70;12.85;;;17.20;77.90;;;18.50;41.82;98339.56;5010805;28;20431;-75
2022/11/20 04:51:22;;;;;;;22.35;13.20;;;17.20;77.90;;;18.48;41.98;98337.13;5016530;28;20333;-75
2022/11/20 04:53:48;;;;;;;21.80;13.77;;;17.10;79.00;;;18.48;41.94;98333.59;5012115;28;20037;-75
2022/11/20 04:56:14;;;;;;;20.88;12.32;;;17.10;78.40;;;18.50;41.77;98340.38;5012162;28;20045;-75
2022/11/20 04:58:41;;;;;;;21.15;13.73;;;17.10;78.20;;;18.50;41.85;98334.06;5028537;28;20099;-75
2022/11/20 05:01:23;;;;;;;19.02;13.18;;;17.20;78.00;;;18.42;41.82;98333.81;5013802;28;20041;-75
2022/11/20 05:03:50;;;;;;;23.50;13.40;;;17.10;77.90;;;18.41;41.84;98336.88;5030356;28;20052;-75
2022/11/20 05:06:18;;;;;;;21.05;13.75;;;17.10;77.80;;;18.44;41.52;98331.53;5011800;28;20045;-75
2022/11/20 05:08:44;;;;;;;21.48;12.90;;;17.10;77.60;;;18.43;41.53;98331.84;4998878;28;20045;-74
2022/11/20 05:11:13;;;;;;;24.25;15.63;;;17.10;77.90;;;18.44;41.80;98325.22;5030389;28;20485;-75
2022/11/20 05:13:41;;;;;;;20.60;14.05;;;17.10;77.90;;;18.41;41.64;98332.19;5011790;28;20038;-75
2022/11/20 05:16:13;;;;;;;19.38;12.93;;;17.10;77.80;;;18.42;41.67;98327.53;5012097;28;20042;-75
2022/11/20 05:18:41;;;;;;;22.08;13.88;;;17.10;77.70;;;18.40;41.77;98318.81;5011698;28;20042;-74
2022/11/20 05:21:08;;;;;;;20.95;12.68;;;17.10;77.40;;;18.38;41.38;98321.88;5009237;28;20112;-75
2022/11/20 05:23:36;;;;;;;26.08;14.48;;;17.10;77.40;;;18.37;41.52;98325.78;5009287;28;20176;-75
2022/11/20 05:26:02;;;;;;;22.52;14.27;;;17.00;77.50;;;18.38;41.79;98327.38;5013720;28;20156;-74
2022/11/20 05:28:29;;;;;;;23.33;14.25;;;17.10;77.80;;;18.43;41.41;98332.66;5011528;28;20382;-75
2022/11/20 05:31:04;;;;;;;22.48;14.10;;;17.00;78.60;;;18.35;41.33;98328.06;4996945;28;20064;-75
2022/11/20 05:33:30;;;;;;;25.88;14.93;;;17.00;77.50;;;18.36;41.34;98323.34;5009721;28;20040;-75
2022/11/20 05:35:59;;;;;;;24.08;14.57;;;17.00;77.20;;;18.35;41.49;98328.06;5012266;28;20037;-75
2022/11/20 05:38:26;;;;;;;28.02;14.63;;;17.00;77.30;;;18.32;41.44;98322.41;4996865;28;20056;-74
2022/11/20 05:40:52;;;;;;;27.67;15.40;;;17.00;77.10;;;18.36;41.26;98326.91;4995513;28;20038;-74
2022/11/20 05:43:19;;;;;;;24.33;13.45;;;17.00;77.40;;;18.30;41.49;98313.72;5009501;28;20060;-74
2022/11/20 05:45:54;;;;;;;25.92;15.48;;;17.00;77.30;;;18.30;41.43;98319.22;4995269;28;20053;-74
2022/11/20 05:48:20;;;;;;;25.67;15.65;;;17.00;77.20;;;18.29;41.30;98307.41;5012054;28;20416;-74
2022/11/20 05:50:48;;;;;;;22.10;14.35;;;17.10;77.00;;;18.25;41.36;98312.00;5011860;28;20049;-75
2022/11/20 05:53:14;;;;;;;24.67;15.70;;;17.00;76.90;;;18.32;41.31;98305.94;5013672;28;20471;-75
2022/11/20 05:55:40;;;;;;;20.42;13.85;;;17.00;76.80;;;18.28;41.19;98305.81;5026812;28;20413;-75
2022/11/20 05:58:07;;;;;;;23.45;14.20;;;17.00;76.60;;;18.31;40.88;98313.38;5010177;28;20049;-75
2022/11/20 06:00:32;;;;;;;28.10;15.23;;;17.10;76.50;;;18.27;41.10;98309.72;4998010;28;20496;-75
2022/11/20 06:02:59;;;;;;;23.58;14.90;;;17.00;76.50;;;18.26;41.44;98308.09;5031874;28;20499;-75
2022/11/20 06:05:26;;;;;;;21.10;13.38;;;17.00;77.00;;;18.27;41.45;98308.88;5014261;28;20128;-75
2022/11/20 06:07:53;;;;;;;24.27;15.32;;;17.00;77.10;;;18.29;41.36;98318.41;5012184;28;20073;-75
2022/11/20 06:10:19;;;;;;;25.45;15.57;;;17.00;77.00;;;18.26;41.36;98319.06;5000772;28;20048;-75
2022/11/20 06:12:46;;;;;;;21.10;13.00;;;17.00;76.90;;;18.28;41.07;98322.28;5029579;28;20041;-75
2022/11/20 06:15:13;;;;;;;21.30;15.70;;;17.10;76.90;;;18.23;41.26;98325.25;5011649;28;20087;-75
2022/11/20 06:17:40;;;;;;;18.73;12.68;;;17.10;76.60;;;18.26;41.29;98319.06;5026947;28;20531;-75
2022/11/20 06:20:07;;;;;;;22.05;12.98;;;17.00;76.80;;;18.18;41.42;98322.69;5028977;28;20037;-75
2022/11/20 06:22:33;;;;;;;24.58;15.55;;;17.10;76.90;;;18.21;41.63;98322.81;5027747;28;20049;-75
2022/11/20 06:24:59;;;;;;;24.55;15.18;;;17.00;77.30;;;18.21;41.60;98322.81;5043366;28;20045;-75
2022/11/20 06:27:25;;;;;;;21.13;12.57;;;16.90;77.20;;;18.23;41.33;98314.25;5011195;28;20044;-75
2022/11/20 06:29:51;;;;;;;27.20;15.32;;;17.00;77.30;;;18.20;41.54;98321.22;5009770;28;20041;-73
2022/11/20 06:32:17;;;;;;;22.98;14.68;;;16.90;77.20;;;18.23;41.35;98314.25;5027024;28;20042;-73
2022/11/20 06:34:43;;;;;;;20.42;13.27;;;17.00;76.80;;;18.23;41.31;98317.00;5010287;28;20098;-74
2022/11/20 06:37:09;;;;;;;22.85;14.20;;;16.90;76.90;;;18.22;41.57;98313.47;5027239;28;20531;-73
2022/11/20 06:39:35;;;;;;;24.33;14.23;;;17.00;77.30;;;18.22;41.51;98307.97;5029053;28;20033;-73
2022/11/20 06:42:02;;;;;;;22.40;14.65;;;16.90;77.30;;;18.23;41.53;98319.75;5008930;28;20038;-73
2022/11/20 06:44:28;;;;;;;24.85;14.48;;;16.90;77.30;;;18.20;41.38;98306.69;5027011;28;20049;-73
2022/11/20 06:46:54;;;;;;;20.33;14.00;;;16.90;77.10;;;18.18;41.48;98307.03;5027543;28;20731;-73
2022/11/20 06:49:20;;;;;;;24.38;15.23;;;17.00;77.20;;;18.16;41.43;98301.06;5028298;28;20053;-73
2022/11/20 06:51:47;;;;;;;22.00;14.38;;;16.90;77.30;;;18.20;41.51;98299.25;5030664;28;20049;-73
2022/11/20 06:54:12;;;;;;;22.35;13.40;;;16.90;77.40;;;18.20;41.64;98302.00;4998921;28;20046;-73
2022/11/20 06:56:39;;;;;;;21.95;14.65;;;17.00;77.40;;;18.17;41.68;98313.66;5021080;28;20422;-73
2022/11/20 06:59:06;;;;;;;24.88;13.88;;;16.90;77.40;;;18.18;41.85;98304.28;5028728;28;20052;-72
2022/11/20 07:01:32;;;;;;;22.48;13.68;;;16.90;77.20;;;18.17;41.53;98299.94;5001227;28;20045;-73
2022/11/20 07:03:58;;;;;;;21.92;14.13;;;16.90;77.40;;;18.17;41.54;98297.19;5031258;28;20049;-73
2022/11/20 07:06:24;;;;;;;23.17;14.60;;;16.90;77.30;;;18.18;41.66;98298.00;5013871;28;20048;-73
2022/11/20 07:08:52;;;;;;;23.05;14.68;;;16.90;77.40;;;18.18;41.53;98301.53;5020865;28;20041;-74
2022/11/20 07:11:18;;;;;;;22.25;13.90;;;16.90;77.40;;;18.17;41.57;98299.16;5024742;28;20045;-72
2022/11/20 07:13:44;;;;;;;24.27;15.68;;;16.90;77.50;;;18.20;41.80;98303.97;5025370;28;20040;-75
2022/11/20 07:16:10;;;;;;;24.17;13.32;;;16.90;77.50;;;18.14;41.71;98299.78;4997853;28;20053;-74
2022/11/20 07:18:36;;;;;;;23.70;15.23;;;16.90;77.40;;;18.18;41.48;98300.75;5009617;28;20037;-74
2022/11/20 07:21:05;;;;;;;25.05;14.45;;;16.90;77.20;;;18.17;41.47;98301.91;5009464;28;20049;-74
2022/11/20 07:23:31;;;;;;;23.02;14.95;;;16.90;77.00;;;18.11;42.01;98292.25;5007019;28;20689;-74
2022/11/20 07:25:57;;;;;;;23.48;15.00;;;16.90;77.50;;;18.00;40.96;98291.84;5009392;28;20296;-74
2022/11/20 07:28:23;;;;;;;27.55;15.43;;;16.90;76.20;;;18.00;40.12;98295.38;5025283;28;20420;-74
2022/11/20 07:30:52;;;;;;;29.27;16.40;;;16.80;74.80;;;17.90;39.39;98295.78;4988620;28;20061;-74
2022/11/20 07:33:19;;;;;;;23.48;16.33;;;16.70;73.40;;;17.91;38.40;98291.94;5024177;28;20045;-74
2022/11/20 07:35:45;;;;;;;24.77;16.35;;;16.80;72.10;;;17.90;38.04;98290.31;5008954;28;20103;-74
2022/11/20 07:38:11;;;;;;;29.65;18.95;;;16.70;71.60;;;17.86;37.36;98289.38;5025334;28;20046;-74
2022/11/20 07:40:37;;;;;;;29.27;17.67;;;16.60;70.40;;;17.76;37.72;98304.25;5009754;28;20041;-74
2022/11/20 07:43:03;;;;;;;28.75;18.63;;;16.50;70.70;;;17.82;36.90;98293.91;5023718;28;20492;-74
2022/11/20 07:45:30;;;;;;;30.50;19.65;;;16.50;70.00;;;17.79;36.66;98294.56;5006720;28;20041;-74
2022/11/20 07:47:56;;;;;;;29.52;19.08;;;16.40;69.20;;;17.73;36.39;98306.84;5027289;28;20098;-73
2022/11/20 07:50:24;;;;;;;32.08;20.20;;;16.40;69.10;;;17.60;35.93;98307.91;5026773;28;20394;-73
2022/11/20 07:52:50;;;;;;;36.35;20.73;;;16.40;68.40;;;17.61;35.78;98315.00;5022189;28;20049;-73
2022/11/20 07:55:17;;;;;;;30.58;20.15;;;16.50;68.00;;;17.65;36.39;98324.97;5027080;28;20040;-73
2022/11/20 07:57:43;;;;;;;32.35;20.92;;;16.40;68.30;;;17.73;36.58;98328.78;5025293;28;20049;-73
2022/11/20 08:00:10;;;;;;;33.40;18.88;;;16.50;68.90;;;17.77;36.51;98321.53;5042682;28;20485;-73
2022/11/20 08:02:40;;;;;;;28.65;20.08;;;16.50;69.30;;;17.83;36.76;98322.94;4995834;28;20140;-73
2022/11/20 08:05:08;;;;;;;27.33;17.40;;;16.50;69.90;;;17.86;36.90;98321.47;5039920;28;20543;-73
2022/11/20 08:07:38;;;;;;;32.85;20.15;;;16.50;69.90;;;17.87;37.52;98331.34;5009767;28;20510;-73
2022/11/20 08:10:06;;;;;;;31.95;18.48;;;16.50;70.20;;;17.86;37.47;98332.44;5024375;28;20053;-74
2022/11/20 08:15:17;;;;;;;32.42;19.33;;;16.50;71.70;;;17.88;38.65;98320.00;5021466;28;20469;-74
2022/11/20 08:17:43;;;;;;;31.90;19.67;;;16.50;71.80;;;17.89;38.27;98321.63;5026570;28;20094;-75
2022/11/20 08:20:10;;;;;;;30.25;18.27;;;16.60;71.80;;;17.92;38.01;98320.97;5008156;28;20427;-75
2022/11/20 08:22:36;;;;;;;28.98;18.40;;;16.60;71.90;;;17.91;38.22;98319.38;5026111;28;20037;-75
2022/11/20 08:25:05;;;;;;;27.20;16.88;;;16.60;71.80;;;17.90;38.40;98315.00;5009953;28;20107;-75
2022/11/20 08:27:32;;;;;;;20.75;15.57;;;16.60;72.00;;;17.90;38.65;98319.69;5039570;28;20045;-75
2022/11/20 08:29:58;;;;;;;31.40;18.05;;;16.60;72.40;;;17.92;38.76;98320.97;5023651;28;20052;-75
2022/11/20 08:32:24;;;;;;;28.65;18.05;;;16.60;72.60;;;17.90;39.03;98305.97;5021483;28;20056;-76
2022/11/20 08:34:50;;;;;;;27.75;17.33;;;16.60;72.60;;;17.98;38.70;98305.88;5005915;28;20045;-76
2022/11/20 08:37:16;;;;;;;30.27;18.35;;;16.80;72.70;;;17.93;38.66;98300.59;5008044;28;20040;-76
2022/11/20 08:39:42;;;;;;;33.33;19.38;;;16.80;72.70;;;17.90;39.04;98298.53;5006158;28;20143;-75
2022/11/20 08:42:09;;;;;;;29.55;17.15;;;16.80;72.70;;;17.95;38.83;98294.78;5022471;28;20045;-75
2022/11/20 08:44:35;;;;;;;30.67;18.48;;;16.80;72.70;;;17.95;38.99;98295.59;5000370;28;20088;-75
2022/11/20 08:47:01;;;;;;;27.52;17.90;;;16.70;72.90;;;17.96;39.14;98305.44;5008780;28;20596;-75
2022/11/20 08:49:27;;;;;;;29.58;17.73;;;16.80;73.10;;;17.95;39.58;98306.56;5009061;28;20033;-75
2022/11/20 08:51:54;;;;;;;21.55;15.57;;;16.80;73.30;;;17.95;39.63;98297.53;5024981;28;20051;-75
2022/11/20 08:54:21;;;;;;;31.63;18.50;;;16.80;73.50;;;17.91;39.30;98300.16;5025932;28;20460;-75
2022/11/20 08:56:48;;;;;;;33.30;18.70;;;16.70;73.10;;;17.94;39.35;98307.72;5007995;28;20049;-75
2022/11/20 08:59:14;;;;;;;25.85;18.42;;;16.80;73.30;;;17.96;39.26;98315.59;5021846;28;20489;-75
2022/11/20 09:01:40;;;;;;;26.33;16.88;;;16.80;73.40;;;17.92;39.46;98303.69;5007242;28;20045;-75
2022/11/20 09:04:07;;;;;;;29.27;19.45;;;16.80;73.70;;;17.98;39.69;98300.41;5023517;28;20059;-75
2022/11/20 09:06:33;;;;;;;24.98;16.98;;;16.80;73.70;;;17.96;39.82;98299.97;5004132;28;20458;-75
2022/11/20 09:08:59;;;;;;;32.67;17.88;;;16.80;73.70;;;17.99;39.42;98299.28;5024366;28;20129;-75
2022/11/20 09:11:25;;;;;;;28.27;17.58;;;16.80;73.70;;;17.97;39.75;98295.25;5008536;28;20045;-75
2022/11/20 09:13:52;;;;;;;26.60;16.27;;;16.80;73.80;;;17.99;39.32;98293.78;5007020;28;20049;-75
2022/11/20 09:16:17;;;;;;;32.70;18.55;;;16.80;73.70;;;17.98;39.75;98296.88;5004277;28;20056;-75
2022/11/20 09:18:44;;;;;;;25.67;16.63;;;16.90;73.70;;;18.01;39.99;98287.94;5021756;28;20048;-75
2022/11/20 09:21:11;;;;;;;28.10;17.73;;;16.90;74.00;;;18.05;40.10;98293.59;5005876;28;20042;-75
2022/11/20 09:23:38;;;;;;;30.70;16.50;;;16.90;74.20;;;18.05;39.98;98291.66;5007392;28;20287;-75
2022/11/20 09:26:12;;;;;;;30.05;18.23;;;17.00;74.10;;;18.04;39.49;98291.97;5005176;28;20546;-75
2022/11/20 09:28:39;;;;;;;26.65;17.08;;;17.00;73.80;;;18.05;39.50;98288.09;5004531;28;20045;-75
2022/11/20 09:31:11;;;;;;;27.13;17.50;;;17.00;73.80;;;18.05;39.64;98296.34;5008877;28;20409;-75
2022/11/20 09:33:37;;;;;;;27.83;17.55;;;16.90;73.80;;;18.07;39.91;98288.56;5011902;28;20574;-74
2022/11/20 09:36:04;;;;;;;24.25;16.67;;;17.00;74.10;;;18.08;39.98;98290.16;5009638;28;21075;-73
2022/11/20 09:38:30;;;;;;;31.05;16.58;;;17.00;74.40;;;18.09;40.04;98283.53;5025811;28;20044;-73
2022/11/20 09:41:27;;;;;;;27.05;17.17;;;17.00;74.40;;;18.08;40.01;98290.16;5008005;28;20045;-72
2022/11/20 09:44:02;;;;;;;26.23;17.17;;;17.00;74.10;;;18.07;39.82;98286.63;5017800;28;20065;-73
2022/11/20 09:46:31;;;;;;;25.33;17.85;;;17.00;74.00;;;18.19;40.29;98294.09;5024529;28;20493;-74
2022/11/20 09:49:34;;;;;;;26.40;16.90;;;17.00;75.10;;;18.31;40.60;98285.13;5026067;28;20052;-71
2022/11/20 09:52:12;;;;;;;27.83;18.25;;;17.00;75.60;;;18.06;41.08;98286.94;5026207;28;20033;-73
2022/11/20 09:54:39;;;;;;;25.90;17.23;;;17.10;75.50;;;18.07;40.74;98283.88;5028221;28;20111;-74
2022/11/20 09:57:18;;;;;;;26.73;17.80;;;17.00;75.40;;;18.38;41.31;98291.69;5013884;28;20500;-73
2022/11/20 10:00:04;;;;;;;36.35;17.73;;;17.10;77.00;;;18.41;41.05;98288.25;5012608;28;20064;-73
2022/11/20 10:02:53;;;;;;;23.52;16.20;;;17.20;76.30;;;18.33;40.67;98302.88;5012942;28;20120;-72
2022/11/20 10:05:39;;;;;;;31.33;17.80;;;17.20;75.60;;;18.33;41.01;98291.88;5043349;28;20057;-72
2022/11/20 10:08:19;;;;;;;23.02;16.50;;;17.30;75.80;;;18.34;41.03;98292.69;5012691;28;20041;-72
2022/11/20 10:11:15;;;;;;;26.10;15.98;;;17.30;75.90;;;18.32;40.81;98301.28;5028288;28;20095;-72
2022/11/20 10:14:12;;;;;;;26.25;16.65;;;17.30;75.70;;;18.36;40.86;98293.16;5033129;28;20037;-72
2022/11/20 10:17:02;;;;;;;31.25;18.23;;;17.30;75.70;;;18.40;40.55;98288.59;5029329;28;20042;-73